»·PEaware :: N212MH KEWR-KJFK

N212MH :: KEWR-KJFK

FLIGHT INFORMATION

Flight Status: Arrived
Operator: Privately registered:
United States
More flights under this callsign
Pilot: Erik A. (17503)
Aircraft: AERMACCHI WARRIOR
(F260)
More flights by this aircraft type
Origin: KEWR Newark Intl
United States
Destination: KJFK Kennedy Intl
United States
More flights between these airports :: More routes between these airports
Route: EWR4 BREZY V39 CMK V374 DENNA BDR V44 DPK
File this flight plan on PilotEdge
Remarks:
Altitude:
(Current/Filed)
11,000ft
Speed:
(Current/Filed)
150kts
Departed: 15-Nov-22 12:30 PM
Arrived: 15-Nov-22 01:23 PM
Distance/Time
Traveled:
16nm/0:53
Distance/Time
To Go:
Arrived

Flight Plot

Page will automatically refresh every two minutes.

Flight plan parsing failed; only flown route is shown


Map Options




Map Legend


Flown Route
Filed Route
Departure Airport
Arrival Airport
Navaid (VOR, NDB)
Fix

Horizontal Profiles

Position Reports

Time Latitude Longitude Heading Altitude Ground
Speed
15-Nov-22 12:22 40.686733 -74.173773 203 10ft 11kts
15-Nov-22 12:23 40.684275 -74.175432 195 10ft 6kts
15-Nov-22 12:24 40.682360 -74.176594 202 10ft 9kts
15-Nov-22 12:25 40.680052 -74.178033 200 10ft 7kts
15-Nov-22 12:26 40.677654 -74.179622 206 10ft 12kts
15-Nov-22 12:27 40.676002 -74.180392 145 10ft 0kts
15-Nov-22 12:28 40.675988 -74.180379 144 10ft 1kts
15-Nov-22 12:29 40.682956 -74.174442 27 87ft 104kts
15-Nov-22 12:30 40.707601 -74.151946 42 1735ft 111kts
15-Nov-22 12:31 40.730550 -74.123396 18 3140ft 119kts
15-Nov-22 12:32 40.759365 -74.103132 33 4406ft 120kts
15-Nov-22 12:33 40.788506 -74.076697 33 5295ft 131kts
15-Nov-22 12:34 40.818818 -74.049405 35 6104ft 132kts
15-Nov-22 12:35 40.845399 -74.015102 42 6818ft 134kts
15-Nov-22 12:36 40.874450 -73.983830 36 7449ft 136kts
15-Nov-22 12:37 40.904469 -73.953183 37 8008ft 137kts
15-Nov-22 12:38 40.935165 -73.923367 32 8495ft 138kts
15-Nov-22 12:39 40.966927 -73.894555 37 8934ft 139kts
15-Nov-22 12:40 40.999951 -73.869127 43 9250ft 143kts
15-Nov-22 12:41 41.030844 -73.835714 45 9525ft 145kts
15-Nov-22 12:42 41.058124 -73.796211 62 9677ft 151kts
15-Nov-22 12:43 41.066393 -73.742496 74 9982ft 139kts
15-Nov-22 12:44 41.074888 -73.689621 79 9993ft 154kts
15-Nov-22 12:45 41.082851 -73.633329 78 10016ft 157kts
15-Nov-22 12:46 41.091454 -73.575942 73 9970ft 161kts
15-Nov-22 12:47 41.101679 -73.518304 78 9969ft 159kts
15-Nov-22 12:48 41.109702 -73.460348 74 9924ft 161kts
15-Nov-22 12:49 41.116847 -73.402106 77 9961ft 157kts
15-Nov-22 12:50 41.126702 -73.344942 81 9942ft 159kts
15-Nov-22 12:51 41.136527 -73.287774 77 9946ft 159kts
15-Nov-22 12:52 41.145689 -73.230481 80 9943ft 159kts
15-Nov-22 12:53 41.152616 -73.172218 82 9941ft 159kts
15-Nov-22 12:54 41.161682 -73.114948 76 9962ft 158kts
15-Nov-22 12:55 41.172215 -73.058081 77 9959ft 159kts
15-Nov-22 12:56 41.200866 -73.048702 278 9911ft 160kts
15-Nov-22 12:57 41.174262 -73.092337 221 9949ft 158kts
15-Nov-22 12:58 41.160502 -73.141500 308 10008ft 155kts
15-Nov-22 12:59 41.190501 -73.124213 75 10046ft 156kts
15-Nov-22 13:00 41.200534 -73.067795 77 10072ft 157kts
15-Nov-22 13:01 41.204084 -73.011294 126 10133ft 155kts
15-Nov-22 13:02 41.172445 -73.028831 250 10078ft 158kts
15-Nov-22 13:03 41.139386 -73.063918 209 10096ft 157kts
15-Nov-22 13:04 41.100046 -73.095269 213 9631ft 178kts
15-Nov-22 13:05 41.054506 -73.125554 206 8813ft 186kts
15-Nov-22 13:06 41.007649 -73.157167 207 7805ft 189kts
15-Nov-22 13:07 40.961468 -73.189287 211 6657ft 187kts
15-Nov-22 13:08 40.925983 -73.231750 246 5994ft 167kts
15-Nov-22 13:09 40.907778 -73.285599 246 5984ft 155kts
15-Nov-22 13:10 40.889719 -73.337123 244 6021ft 153kts
15-Nov-22 13:11 40.871045 -73.388071 243 6067ft 157kts
15-Nov-22 13:12 40.851457 -73.442044 248 5995ft 173kts
15-Nov-22 13:13 40.832176 -73.504678 248 5116ft 188kts
15-Nov-22 13:14 40.811138 -73.567490 246 3704ft 187kts
15-Nov-22 13:15 40.788054 -73.625221 238 2683ft 159kts
15-Nov-22 13:16 40.764928 -73.670548 227 2185ft 145kts
15-Nov-22 13:17 40.731805 -73.697133 210 2030ft 140kts
15-Nov-22 13:18 40.700730 -73.723422 209 1617ft 110kts
15-Nov-22 13:19 40.676470 -73.741567 211 735ft 95kts
15-Nov-22 13:20 40.655139 -73.759469 209 226ft 89kts
15-Nov-22 13:21 40.637841 -73.773211 210 10ft 42kts
15-Nov-22 13:22 40.636257 -73.775851 279 10ft 0kts
15-Nov-22 13:23 40.636660 -73.776660 280 10ft 13kts
15-Nov-22 13:24 40.634179 -73.778936 219 7ft 6kts
15-Nov-22 13:25 40.634561 -73.781437 301 7ft 11kts
15-Nov-22 13:26 40.636274 -73.785279 301 7ft 16kts
15-Nov-22 13:27 40.639049 -73.791377 303 9ft 21kts
15-Nov-22 13:28 40.641781 -73.797231 296 9ft 17kts
15-Nov-22 13:29 40.644994 -73.803340 299 10ft 23kts
15-Nov-22 13:30 40.648240 -73.810462 300 10ft 24kts
15-Nov-22 13:31 40.649621 -73.810967 334 10ft 0kts
15-Nov-22 13:32 40.649621 -73.810967 334 10ft 0kts
15-Nov-22 13:33 40.649621 -73.810967 334 10ft 0kts

Navigation Log

Ident Type
Flight plan parsing failed, navigation log unavailable